sensor_id;sensor_type;location;lat;lon;timestamp;pressure;altitude;pressure_sealevel;temperature;humidity
6668;BME280;3370;47.712;9.082;2023-01-30T00:01:46;97831.13;;;-1.82;81.51
6668;BME280;3370;47.712;9.082;2023-01-30T00:04:12;97826.88;;;-1.85;82.81
6668;BME280;3370;47.712;9.082;2023-01-30T00:06:39;97823.66;;;-1.78;82.40
6668;BME280;3370;47.712;9.082;2023-01-30T00:09:06;97824.19;;;-1.94;83.22
6668;BME280;3370;47.712;9.082;2023-01-30T00:11:32;97820.03;;;-1.90;83.05
6668;BME280;3370;47.712;9.082;2023-01-30T00:13:59;97811.66;;;-1.91;82.99
6668;BME280;3370;47.712;9.082;2023-01-30T00:16:26;97813.38;;;-1.87;82.07
6668;BME280;3370;47.712;9.082;2023-01-30T00:18:52;97809.28;;;-1.82;81.33
6668;BME280;3370;47.712;9.082;2023-01-30T00:21:18;97807.41;;;-1.94;81.83
6668;BME280;3370;47.712;9.082;2023-01-30T00:23:44;97806.56;;;-1.93;81.69
6668;BME280;3370;47.712;9.082;2023-01-30T00:26:10;97805.69;;;-1.96;81.87
6668;BME280;3370;47.712;9.082;2023-01-30T00:28:37;97794.84;;;-1.90;81.83
6668;BME280;3370;47.712;9.082;2023-01-30T00:31:04;97805.69;;;-1.95;82.11
6668;BME280;3370;47.712;9.082;2023-01-30T00:33:30;97804.03;;;-1.94;82.04
6668;BME280;3370;47.712;9.082;2023-01-30T00:35:57;97804.81;;;-1.98;82.14
6668;BME280;3370;47.712;9.082;2023-01-30T00:38:24;97802.19;;;-2.04;82.42
6668;BME280;3370;47.712;9.082;2023-01-30T00:40:50;97802.22;;;-2.01;82.21
6668;BME280;3370;47.712;9.082;2023-01-30T00:43:18;97793.19;;;-1.90;81.81
6668;BME280;3370;47.712;9.082;2023-01-30T00:46:31;97782.19;;;-1.95;81.15
6668;BME280;3370;47.712;9.082;2023-01-30T00:49:17;97773.84;;;-1.91;81.48
6668;BME280;3370;47.712;9.082;2023-01-30T00:51:43;97770.34;;;-1.98;82.10
6668;BME280;3370;47.712;9.082;2023-01-30T00:54:09;97771.25;;;-1.94;82.35
6668;BME280;3370;47.712;9.082;2023-01-30T00:56:35;97769.66;;;-1.89;82.77
6668;BME280;3370;47.712;9.082;2023-01-30T01:06:23;97764.69;;;-1.86;82.18
6668;BME280;3370;47.712;9.082;2023-01-30T01:08:49;97762.78;;;-2.01;82.35
6668;BME280;3370;47.712;9.082;2023-01-30T01:11:14;97771.38;;;-1.88;82.62
6668;BME280;3370;47.712;9.082;2023-01-30T01:13:53;97767.91;;;-1.93;82.63
6668;BME280;3370;47.712;9.082;2023-01-30T01:16:19;97759.53;;;-1.94;82.64
6668;BME280;3370;47.712;9.082;2023-01-30T01:18:46;97754.22;;;-2.09;83.21
6668;BME280;3370;47.712;9.082;2023-01-30T01:21:11;97755.13;;;-2.05;83.53
6668;BME280;3370;47.712;9.082;2023-01-30T01:23:38;97758.34;;;-2.13;84.26
6668;BME280;3370;47.712;9.082;2023-01-30T01:26:04;97753.47;;;-2.03;83.72
6668;BME280;3370;47.712;9.082;2023-01-30T01:28:30;97747.66;;;-2.01;83.78
6668;BME280;3370;47.712;9.082;2023-01-30T01:30:56;97750.84;;;-2.11;84.45
6668;BME280;3370;47.712;9.082;2023-01-30T01:33:28;97739.75;;;-2.21;84.48
6668;BME280;3370;47.712;9.082;2023-01-30T01:35:55;97743.22;;;-2.16;83.97
6668;BME280;3370;47.712;9.082;2023-01-30T01:38:21;97740.56;;;-2.22;84.45
6668;BME280;3370;47.712;9.082;2023-01-30T01:40:48;97736.47;;;-2.17;84.94
6668;BME280;3370;47.712;9.082;2023-01-30T01:43:37;97731.63;;;-2.04;83.45
6668;BME280;3370;47.712;9.082;2023-01-30T01:46:21;97736.59;;;-2.07;83.39
6668;BME280;3370;47.712;9.082;2023-01-30T01:48:55;97739.06;;;-2.12;83.91
6668;BME280;3370;47.712;9.082;2023-01-30T01:51:34;97725.56;;;-2.14;83.38
6668;BME280;3370;47.712;9.082;2023-01-30T01:54:08;97728.06;;;-2.17;83.44
6668;BME280;3370;47.712;9.082;2023-01-30T01:56:39;97731.50;;;-2.10;83.22
6668;BME280;3370;47.712;9.082;2023-01-30T01:59:15;97734.94;;;-2.08;83.22
6668;BME280;3370;47.712;9.082;2023-01-30T02:01:42;97736.63;;;-2.06;84.01
6668;BME280;3370;47.712;9.082;2023-01-30T02:04:10;97738.13;;;-2.19;84.57
6668;BME280;3370;47.712;9.082;2023-01-30T02:06:38;97741.50;;;-2.17;85.17
6668;BME280;3370;47.712;9.082;2023-01-30T02:09:08;97746.88;;;-1.95;83.87
6668;BME280;3370;47.712;9.082;2023-01-30T02:11:51;97745.94;;;-2.02;84.29
6668;BME280;3370;47.712;9.082;2023-01-30T02:14:19;97739.78;;;-2.18;84.27
6668;BME280;3370;47.712;9.082;2023-01-30T02:16:46;97735.50;;;-2.23;84.74
6668;BME280;3370;47.712;9.082;2023-01-30T02:22:55;97736.53;;;-2.14;84.10
6668;BME280;3370;47.712;9.082;2023-01-30T02:31:23;97745.69;;;-2.17;84.03
6668;BME280;3370;47.712;9.082;2023-01-30T02:37:16;97745.00;;;-2.08;83.99
6668;BME280;3370;47.712;9.082;2023-01-30T02:43:38;97764.16;;;-2.18;85.18
6668;BME280;3370;47.712;9.082;2023-01-30T02:49:17;97776.84;;;-2.14;84.55
6668;BME280;3370;47.712;9.082;2023-01-30T02:51:46;97780.00;;;-2.24;84.86
6668;BME280;3370;47.712;9.082;2023-01-30T02:54:15;97785.16;;;-2.18;84.58
6668;BME280;3370;47.712;9.082;2023-01-30T02:56:50;97775.13;;;-2.15;84.36
6668;BME280;3370;47.712;9.082;2023-01-30T02:59:42;97766.06;;;-2.05;84.09
6668;BME280;3370;47.712;9.082;2023-01-30T03:02:35;97782.84;;;-2.05;84.25
6668;BME280;3370;47.712;9.082;2023-01-30T03:11:56;97808.81;;;-2.09;84.32
6668;BME280;3370;47.712;9.082;2023-01-30T03:14:34;97826.53;;;-2.06;83.79
6668;BME280;3370;47.712;9.082;2023-01-30T03:17:05;97820.56;;;-2.12;84.30
6668;BME280;3370;47.712;9.082;2023-01-30T03:19:33;97815.59;;;-2.05;84.14
6668;BME280;3370;47.712;9.082;2023-01-30T03:22:00;97828.28;;;-2.02;84.51
6668;BME280;3370;47.712;9.082;2023-01-30T03:24:26;97822.50;;;-1.95;84.12
6668;BME280;3370;47.712;9.082;2023-01-30T03:27:06;97802.44;;;-1.89;84.13
6668;BME280;3370;47.712;9.082;2023-01-30T03:29:33;97782.06;;;-2.03;84.41
6668;BME280;3370;47.712;9.082;2023-01-30T03:31:59;97783.78;;;-2.00;86.42
6668;BME280;3370;47.712;9.082;2023-01-30T03:34:25;97784.59;;;-2.03;86.25
6668;BME280;3370;47.712;9.082;2023-01-30T03:36:51;97786.34;;;-1.97;84.44
6668;BME280;3370;47.712;9.082;2023-01-30T03:39:17;97789.59;;;-2.04;84.86
6668;BME280;3370;47.712;9.082;2023-01-30T03:41:43;97798.81;;;-2.06;85.82
6668;BME280;3370;47.712;9.082;2023-01-30T03:44:09;97786.28;;;-2.00;85.33
6668;BME280;3370;47.712;9.082;2023-01-30T03:46:35;97799.66;;;-2.06;85.49
6668;BME280;3370;47.712;9.082;2023-01-30T03:49:00;97808.81;;;-2.09;86.43
6668;BME280;3370;47.712;9.082;2023-01-30T03:51:26;97803.88;;;-2.03;84.82
6668;BME280;3370;47.712;9.082;2023-01-30T03:53:52;97811.53;;;-1.99;85.86
6668;BME280;3370;47.712;9.082;2023-01-30T03:56:18;97800.53;;;-2.02;86.49
6668;BME280;3370;47.712;9.082;2023-01-30T03:58:43;97800.59;;;-1.99;85.95
6668;BME280;3370;47.712;9.082;2023-01-30T04:01:09;97780.38;;;-2.02;86.37
6668;BME280;3370;47.712;9.082;2023-01-30T04:03:35;97776.13;;;-2.06;86.83
6668;BME280;3370;47.712;9.082;2023-01-30T04:06:01;97786.34;;;-1.97;87.02
6668;BME280;3370;47.712;9.082;2023-01-30T04:08:27;97808.91;;;-2.03;86.78
6668;BME280;3370;47.712;9.082;2023-01-30T04:10:53;97805.59;;;-2.02;87.21
6668;BME280;3370;47.712;9.082;2023-01-30T04:13:19;97829.03;;;-2.06;86.78
6668;BME280;3370;47.712;9.082;2023-01-30T04:15:45;97831.53;;;-2.08;86.93
6668;BME280;3370;47.712;9.082;2023-01-30T04:18:10;97819.75;;;-2.09;86.56
6668;BME280;3370;47.712;9.082;2023-01-30T04:20:36;97832.47;;;-2.01;86.65
6668;BME280;3370;47.712;9.082;2023-01-30T04:23:03;97834.13;;;-2.05;87.59
6668;BME280;3370;47.712;9.082;2023-01-30T04:25:29;97829.94;;;-2.01;86.90
6668;BME280;3370;47.712;9.082;2023-01-30T04:27:55;97810.66;;;-2.01;86.34
6668;BME280;3370;47.712;9.082;2023-01-30T04:30:21;97789.66;;;-2.00;87.68
6668;BME280;3370;47.712;9.082;2023-01-30T04:32:47;97780.31;;;-2.05;88.64
6668;BME280;3370;47.712;9.082;2023-01-30T04:35:13;97765.19;;;-2.05;89.17
6668;BME280;3370;47.712;9.082;2023-01-30T04:37:39;97761.13;;;-1.99;87.50
6668;BME280;3370;47.712;9.082;2023-01-30T04:40:05;97748.41;;;-2.06;88.03
6668;BME280;3370;47.712;9.082;2023-01-30T04:42:32;97728.09;;;-2.16;88.97
6668;BME280;3370;47.712;9.082;2023-01-30T04:44:57;97730.63;;;-2.14;87.45
6668;BME280;3370;47.712;9.082;2023-01-30T04:47:24;97724.59;;;-2.24;87.21
6668;BME280;3370;47.712;9.082;2023-01-30T04:49:49;97743.03;;;-2.25;87.46
6668;BME280;3370;47.712;9.082;2023-01-30T04:52:15;97724.59;;;-2.24;87.41
6668;BME280;3370;47.712;9.082;2023-01-30T04:54:41;97709.53;;;-2.21;87.53
6668;BME280;3370;47.712;9.082;2023-01-30T04:57:07;97716.28;;;-2.18;88.81
6668;BME280;3370;47.712;9.082;2023-01-30T04:59:33;97726.25;;;-2.26;89.22
6668;BME280;3370;47.712;9.082;2023-01-30T05:01:58;97761.56;;;-2.23;89.77
6668;BME280;3370;47.712;9.082;2023-01-30T05:04:24;97761.50;;;-2.26;87.19
6668;BME280;3370;47.712;9.082;2023-01-30T05:06:50;97748.91;;;-2.26;88.15
6668;BME280;3370;47.712;9.082;2023-01-30T05:09:16;97749.81;;;-2.22;89.99
6668;BME280;3370;47.712;9.082;2023-01-30T05:11:41;97737.22;;;-2.22;90.96
6668;BME280;3370;47.712;9.082;2023-01-30T05:14:07;97751.44;;;-2.26;89.23
6668;BME280;3370;47.712;9.082;2023-01-30T05:16:33;97754.75;;;-2.27;88.63
6668;BME280;3370;47.712;9.082;2023-01-30T05:18:59;97754.72;;;-2.30;88.56
6668;BME280;3370;47.712;9.082;2023-01-30T05:21:26;97756.38;;;-2.31;89.35
6668;BME280;3370;47.712;9.082;2023-01-30T05:23:55;97752.16;;;-2.33;87.38
6668;BME280;3370;47.712;9.082;2023-01-30T05:26:21;97757.91;;;-2.40;87.26
6668;BME280;3370;47.712;9.082;2023-01-30T05:28:52;97751.16;;;-2.43;87.43
6668;BME280;3370;47.712;9.082;2023-01-30T05:31:19;97740.38;;;-2.34;88.03
6668;BME280;3370;47.712;9.082;2023-01-30T05:33:47;97732.00;;;-2.33;87.37
6668;BME280;3370;47.712;9.082;2023-01-30T05:36:16;97735.16;;;-2.43;87.70
6668;BME280;3370;47.712;9.082;2023-01-30T05:38:43;97739.53;;;-2.35;87.53
6668;BME280;3370;47.712;9.082;2023-01-30T05:41:11;97737.88;;;-2.33;87.05
6668;BME280;3370;47.712;9.082;2023-01-30T05:43:38;97737.75;;;-2.40;87.19
6668;BME280;3370;47.712;9.082;2023-01-30T05:46:05;97737.69;;;-2.43;87.01
6668;BME280;3370;47.712;9.082;2023-01-30T05:48:33;97751.19;;;-2.40;86.67
6668;BME280;3370;47.712;9.082;2023-01-30T05:50:59;97749.56;;;-2.36;87.69
6668;BME280;3370;47.712;9.082;2023-01-30T05:53:30;97770.50;;;-2.40;86.92
6668;BME280;3370;47.712;9.082;2023-01-30T05:56:04;97753.81;;;-2.32;86.53
6668;BME280;3370;47.712;9.082;2023-01-30T05:58:31;97757.09;;;-2.38;86.67
6668;BME280;3370;47.712;9.082;2023-01-30T06:01:03;97755.28;;;-2.45;86.07
6668;BME280;3370;47.712;9.082;2023-01-30T06:03:30;97749.47;;;-2.42;85.98
6668;BME280;3370;47.712;9.082;2023-01-30T06:05:56;97737.69;;;-2.43;86.35
6668;BME280;3370;47.712;9.082;2023-01-30T06:08:22;97751.34;;;-2.31;86.26
6668;BME280;3370;47.712;9.082;2023-01-30T06:10:48;97740.31;;;-2.39;84.55
6668;BME280;3370;47.712;9.082;2023-01-30T06:13:14;97729.56;;;-2.27;84.86
6668;BME280;3370;47.712;9.082;2023-01-30T06:15:40;97715.25;;;-2.29;85.58
6668;BME280;3370;47.712;9.082;2023-01-30T06:18:05;97736.25;;;-2.29;85.32
6668;BME280;3370;47.712;9.082;2023-01-30T06:20:31;97737.91;;;-2.31;85.85
6668;BME280;3370;47.712;9.082;2023-01-30T06:22:57;97744.59;;;-2.33;85.56
6668;BME280;3370;47.712;9.082;2023-01-30T06:25:23;97731.09;;;-2.37;84.18
6668;BME280;3370;47.712;9.082;2023-01-30T06:27:49;97729.31;;;-2.42;84.54
6668;BME280;3370;47.712;9.082;2023-01-30T06:30:15;97721.72;;;-2.45;85.22
6668;BME280;3370;47.712;9.082;2023-01-30T06:32:41;97718.38;;;-2.44;85.03
6668;BME280;3370;47.712;9.082;2023-01-30T06:35:07;97707.31;;;-2.53;86.27
6668;BME280;3370;47.712;9.082;2023-01-30T06:37:33;97724.94;;;-2.53;85.42
6668;BME280;3370;47.712;9.082;2023-01-30T06:39:59;97746.00;;;-2.49;84.84
6668;BME280;3370;47.712;9.082;2023-01-30T06:42:25;97755.22;;;-2.49;85.45
6668;BME280;3370;47.712;9.082;2023-01-30T06:44:51;97757.63;;;-2.56;85.30
6668;BME280;3370;47.712;9.082;2023-01-30T06:47:16;97754.44;;;-2.45;84.82
6668;BME280;3370;47.712;9.082;2023-01-30T06:49:42;97782.84;;;-2.53;85.76
6668;BME280;3370;47.712;9.082;2023-01-30T06:52:09;97785.47;;;-2.48;85.40
6668;BME280;3370;47.712;9.082;2023-01-30T06:54:34;97783.88;;;-2.44;85.25
6668;BME280;3370;47.712;9.082;2023-01-30T06:57:00;97791.34;;;-2.47;85.78
6668;BME280;3370;47.712;9.082;2023-01-30T06:59:26;97774.66;;;-2.42;85.57
6668;BME280;3370;47.712;9.082;2023-01-30T07:01:52;97773.91;;;-2.37;85.22
6668;BME280;3370;47.712;9.082;2023-01-30T07:04:17;97790.69;;;-2.39;83.73
6668;BME280;3370;47.712;9.082;2023-01-30T07:06:43;97793.25;;;-2.36;83.43
6668;BME280;3370;47.712;9.082;2023-01-30T07:09:10;97793.31;;;-2.31;83.44
6668;BME280;3370;47.712;9.082;2023-01-30T07:11:36;97796.56;;;-2.38;84.74
6668;BME280;3370;47.712;9.082;2023-01-30T07:14:02;97791.53;;;-2.38;84.62
6668;BME280;3370;47.712;9.082;2023-01-30T07:16:28;97794.97;;;-2.33;83.61
6668;BME280;3370;47.712;9.082;2023-01-30T07:18:56;97797.44;;;-2.36;84.64
6668;BME280;3370;47.712;9.082;2023-01-30T07:21:24;97799.84;;;-2.42;83.68
6668;BME280;3370;47.712;9.082;2023-01-30T07:23:51;97808.22;;;-2.43;85.21
6668;BME280;3370;47.712;9.082;2023-01-30T07:26:17;97814.09;;;-2.44;85.44
6668;BME280;3370;47.712;9.082;2023-01-30T07:28:43;97810.69;;;-2.45;84.47
6668;BME280;3370;47.712;9.082;2023-01-30T07:31:09;97809.69;;;-2.55;85.42
6668;BME280;3370;47.712;9.082;2023-01-30T07:33:35;97805.59;;;-2.49;86.01
6668;BME280;3370;47.712;9.082;2023-01-30T07:36:00;97821.69;;;-2.41;85.25
6668;BME280;3370;47.712;9.082;2023-01-30T07:38:26;97814.66;;;-2.58;85.82
6668;BME280;3370;47.712;9.082;2023-01-30T07:40:52;97825.78;;;-2.48;86.47
6668;BME280;3370;47.712;9.082;2023-01-30T07:43:18;97811.50;;;-2.47;85.49
6668;BME280;3370;47.712;9.082;2023-01-30T07:45:47;97813.31;;;-2.40;86.17
6668;BME280;3370;47.712;9.082;2023-01-30T07:48:18;97793.09;;;-2.43;85.77
6668;BME280;3370;47.712;9.082;2023-01-30T07:50:44;97794.03;;;-2.38;86.56
6668;BME280;3370;47.712;9.082;2023-01-30T07:53:14;97779.75;;;-2.39;86.20
6668;BME280;3370;47.712;9.082;2023-01-30T07:55:40;97756.22;;;-2.40;84.57
6668;BME280;3370;47.712;9.082;2023-01-30T07:58:07;97760.31;;;-2.45;85.97
6668;BME280;3370;47.712;9.082;2023-01-30T08:00:32;97756.31;;;-2.35;85.51
6668;BME280;3370;47.712;9.082;2023-01-30T08:02:59;97763.06;;;-2.33;84.67
6668;BME280;3370;47.712;9.082;2023-01-30T08:05:25;97770.72;;;-2.28;85.80
6668;BME280;3370;47.712;9.082;2023-01-30T08:07:51;97778.50;;;-2.14;85.30
6668;BME280;3370;47.712;9.082;2023-01-30T08:10:17;97793.69;;;-2.09;85.52
6668;BME280;3370;47.712;9.082;2023-01-30T08:12:43;97801.44;;;-1.99;86.71
6668;BME280;3370;47.712;9.082;2023-01-30T08:15:09;97795.84;;;-1.81;86.39
6668;BME280;3370;47.712;9.082;2023-01-30T08:17:35;97793.13;;;-1.93;85.29
6668;BME280;3370;47.712;9.082;2023-01-30T08:20:01;97795.66;;;-1.93;86.35
6668;BME280;3370;47.712;9.082;2023-01-30T08:22:28;97800.78;;;-1.87;85.71
6668;BME280;3370;47.712;9.082;2023-01-30T08:24:54;97802.63;;;-1.77;84.78
6668;BME280;3370;47.712;9.082;2023-01-30T08:27:19;97811.22;;;-1.65;85.27
6668;BME280;3370;47.712;9.082;2023-01-30T08:29:45;97800.34;;;-1.63;84.42
6668;BME280;3370;47.712;9.082;2023-01-30T08:32:11;97807.22;;;-1.51;83.98
6668;BME280;3370;47.712;9.082;2023-01-30T08:34:38;97814.44;;;-1.76;84.30
6668;BME280;3370;47.712;9.082;2023-01-30T08:37:04;97821.13;;;-1.78;85.92
6668;BME280;3370;47.712;9.082;2023-01-30T08:39:30;97822.72;;;-1.83;86.74
6668;BME280;3370;47.712;9.082;2023-01-30T08:41:55;97831.16;;;-1.81;86.51
6668;BME280;3370;47.712;9.082;2023-01-30T08:44:21;97813.44;;;-1.84;84.91
6668;BME280;3370;47.712;9.082;2023-01-30T08:46:47;97790.09;;;-1.74;86.77
6668;BME280;3370;47.712;9.082;2023-01-30T08:49:13;97778.47;;;-1.62;86.89
6668;BME280;3370;47.712;9.082;2023-01-30T08:51:39;97783.00;;;-1.40;86.84
6668;BME280;3370;47.712;9.082;2023-01-30T08:54:04;97786.50;;;-1.30;84.25
6668;BME280;3370;47.712;9.082;2023-01-30T08:56:32;97793.16;;;-1.35;84.19
6668;BME280;3370;47.712;9.082;2023-01-30T08:58:58;97791.53;;;-1.31;83.36
6668;BME280;3370;47.712;9.082;2023-01-30T09:01:24;97798.19;;;-1.37;83.29
6668;BME280;3370;47.712;9.082;2023-01-30T09:03:50;97815.28;;;-1.17;83.31
6668;BME280;3370;47.712;9.082;2023-01-30T09:06:16;97844.56;;;-1.28;82.71
6668;BME280;3370;47.712;9.082;2023-01-30T09:08:42;97848.97;;;-1.15;84.04
6668;BME280;3370;47.712;9.082;2023-01-30T09:11:09;97839.00;;;-1.06;82.95
6668;BME280;3370;47.712;9.082;2023-01-30T09:13:35;97831.41;;;-1.06;81.97
6668;BME280;3370;47.712;9.082;2023-01-30T09:16:05;97833.13;;;-1.02;82.65
6668;BME280;3370;47.712;9.082;2023-01-30T09:18:31;97829.13;;;-0.87;82.77
6668;BME280;3370;47.712;9.082;2023-01-30T09:21:04;97818.75;;;-1.09;82.21
6668;BME280;3370;47.712;9.082;2023-01-30T09:23:30;97828.94;;;-1.03;82.68
6668;BME280;3370;47.712;9.082;2023-01-30T09:25:56;97844.28;;;-0.87;82.33
6668;BME280;3370;47.712;9.082;2023-01-30T09:28:22;97850.72;;;-1.09;80.49
6668;BME280;3370;47.712;9.082;2023-01-30T09:30:47;97852.53;;;-1.01;80.89
6668;BME280;3370;47.712;9.082;2023-01-30T09:33:13;97857.75;;;-0.88;81.85
6668;BME280;3370;47.712;9.082;2023-01-30T09:35:41;97868.75;;;-0.83;80.39
6668;BME280;3370;47.712;9.082;2023-01-30T09:38:07;97880.38;;;-0.96;79.92
6668;BME280;3370;47.712;9.082;2023-01-30T09:40:36;97857.91;;;-0.74;81.61
6668;BME280;3370;47.712;9.082;2023-01-30T09:47:04;97843.63;;;-0.74;79.21
6668;BME280;3370;47.712;9.082;2023-01-30T09:53:52;97836.41;;;-0.40;80.57
6668;BME280;3370;47.712;9.082;2023-01-30T09:56:19;97826.97;;;-0.60;79.55
6668;BME280;3370;47.712;9.082;2023-01-30T09:58:51;97826.63;;;-0.09;80.45
6668;BME280;3370;47.712;9.082;2023-01-30T10:01:58;97813.78;;;-0.31;79.97
6668;BME280;3370;47.712;9.082;2023-01-30T10:04:34;97826.63;;;-0.12;78.38
6668;BME280;3370;47.712;9.082;2023-01-30T10:10:05;97815.63;;;-0.16;77.62
6668;BME280;3370;47.712;9.082;2023-01-30T10:12:53;97804.72;;;-0.10;79.09
6668;BME280;3370;47.712;9.082;2023-01-30T10:16:03;97820.50;;;-0.34;78.47
6668;BME280;3370;47.712;9.082;2023-01-30T10:26:50;97806.47;;;-0.03;78.42
6668;BME280;3370;47.712;9.082;2023-01-30T10:29:36;97797.94;;;-0.14;78.96
6668;BME280;3370;47.712;9.082;2023-01-30T10:32:17;97815.81;;;0.07;77.95
6668;BME280;3370;47.712;9.082;2023-01-30T10:34:56;97820.97;;;0.15;76.72
6668;BME280;3370;47.712;9.082;2023-01-30T10:41:25;97806.84;;;0.43;75.80
6668;BME280;3370;47.712;9.082;2023-01-30T10:44:11;97786.47;;;0.25;76.62
6668;BME280;3370;47.712;9.082;2023-01-30T10:49:38;97750.94;;;0.09;78.13
6668;BME280;3370;47.712;9.082;2023-01-30T10:52:28;97724.03;;;0.17;77.92
6668;BME280;3370;47.712;9.082;2023-01-30T10:55:40;97726.59;;;0.21;77.70
6668;BME280;3370;47.712;9.082;2023-01-30T10:58:35;97733.22;;;0.11;76.40
6668;BME280;3370;47.712;9.082;2023-01-30T11:02:09;97729.22;;;0.39;75.66
6668;BME280;3370;47.712;9.082;2023-01-30T11:05:02;97723.47;;;0.68;76.48
6668;BME280;3370;47.712;9.082;2023-01-30T11:07:32;97732.88;;;0.95;74.82
6668;BME280;3370;47.712;9.082;2023-01-30T11:09:59;97721.91;;;0.96;72.72
6668;BME280;3370;47.712;9.082;2023-01-30T11:12:25;97727.69;;;0.66;71.19
6668;BME280;3370;47.712;9.082;2023-01-30T11:14:58;97712.44;;;0.52;71.39
6668;BME280;3370;47.712;9.082;2023-01-30T11:17:36;97710.00;;;0.72;71.88
6668;BME280;3370;47.712;9.082;2023-01-30T11:20:20;97701.59;;;0.79;70.02
6668;BME280;3370;47.712;9.082;2023-01-30T11:23:04;97697.34;;;0.67;72.08
6668;BME280;3370;47.712;9.082;2023-01-30T11:25:31;97693.09;;;0.60;71.37
6668;BME280;3370;47.712;9.082;2023-01-30T11:28:04;97706.59;;;0.64;73.55
6668;BME280;3370;47.712;9.082;2023-01-30T11:30:35;97693.94;;;0.67;73.42
6668;BME280;3370;47.712;9.082;2023-01-30T11:35:51;97688.28;;;1.62;70.09
6668;BME280;3370;47.712;9.082;2023-01-30T11:38:31;97678.97;;;2.15;68.98
6668;BME280;3370;47.712;9.082;2023-01-30T11:43:42;97656.22;;;3.74;63.70
6668;BME280;3370;47.712;9.082;2023-01-30T11:46:12;97662.66;;;2.96;65.97
6668;BME280;3370;47.712;9.082;2023-01-30T11:48:49;97650.94;;;2.56;66.47
6668;BME280;3370;47.712;9.082;2023-01-30T11:51:20;97649.13;;;2.87;67.42
6668;BME280;3370;47.712;9.082;2023-01-30T11:56:49;97678.16;;;2.02;68.08
6668;BME280;3370;47.712;9.082;2023-01-30T11:59:48;97649.16;;;2.81;67.10
6668;BME280;3370;47.712;9.082;2023-01-30T12:02:32;97651.94;;;1.86;68.95
6668;BME280;3370;47.712;9.082;2023-01-30T12:05:05;97668.84;;;1.58;70.75
6668;BME280;3370;47.712;9.082;2023-01-30T12:07:35;97662.03;;;1.30;72.26
6668;BME280;3370;47.712;9.082;2023-01-30T12:12:54;97653.59;;;1.22;73.66
6668;BME280;3370;47.712;9.082;2023-01-30T12:15:30;97673.91;;;1.47;72.15
6668;BME280;3370;47.712;9.082;2023-01-30T12:18:28;97655.34;;;1.60;71.99
6668;BME280;3370;47.712;9.082;2023-01-30T12:23:48;97651.06;;;1.18;73.13
6668;BME280;3370;47.712;9.082;2023-01-30T12:26:46;97651.06;;;1.16;72.82
6668;BME280;3370;47.712;9.082;2023-01-30T12:29:27;97652.75;;;1.15;73.63
6668;BME280;3370;47.712;9.082;2023-01-30T12:34:27;97645.19;;;1.32;73.45
6668;BME280;3370;47.712;9.082;2023-01-30T12:37:22;97659.53;;;1.50;74.19
6668;BME280;3370;47.712;9.082;2023-01-30T12:43:13;97629.97;;;1.54;72.20
6668;BME280;3370;47.712;9.082;2023-01-30T12:45:54;97634.19;;;1.52;71.68
6668;BME280;3370;47.712;9.082;2023-01-30T12:48:40;97628.31;;;1.36;72.93
6668;BME280;3370;47.712;9.082;2023-01-30T12:54:34;97643.50;;;1.25;71.74
6668;BME280;3370;47.712;9.082;2023-01-30T12:57:21;97623.19;;;1.19;72.77
6668;BME280;3370;47.712;9.082;2023-01-30T13:00:21;97620.66;;;1.19;73.09
6668;BME280;3370;47.712;9.082;2023-01-30T13:03:22;97613.06;;;1.21;72.92
6668;BME280;3370;47.712;9.082;2023-01-30T13:11:57;97618.97;;;1.32;71.70
6668;BME280;3370;47.712;9.082;2023-01-30T13:14:58;97608.00;;;1.31;72.39
6668;BME280;3370;47.712;9.082;2023-01-30T13:18:19;97593.66;;;1.37;72.29
6668;BME280;3370;47.712;9.082;2023-01-30T13:21:07;97591.97;;;1.40;71.56
6668;BME280;3370;47.712;9.082;2023-01-30T13:26:36;97575.91;;;1.43;72.28
6668;BME280;3370;47.712;9.082;2023-01-30T13:29:31;97582.69;;;1.44;72.60
6668;BME280;3370;47.712;9.082;2023-01-30T13:32:04;97586.06;;;1.49;73.31
6668;BME280;3370;47.712;9.082;2023-01-30T13:34:40;97582.63;;;1.68;72.18
6668;BME280;3370;47.712;9.082;2023-01-30T13:37:18;97602.09;;;1.82;71.14
6668;BME280;3370;47.712;9.082;2023-01-30T13:39:55;97592.75;;;1.88;71.27
6668;BME280;3370;47.712;9.082;2023-01-30T13:43:02;97578.41;;;1.86;69.90
6668;BME280;3370;47.712;9.082;2023-01-30T13:45:32;97590.22;;;1.79;70.90
6668;BME280;3370;47.712;9.082;2023-01-30T13:48:54;97592.78;;;1.87;71.68
6668;BME280;3370;47.712;9.082;2023-01-30T13:51:20;97584.34;;;1.82;70.66
6668;BME280;3370;47.712;9.082;2023-01-30T13:56:57;97577.56;;;1.87;72.09
6668;BME280;3370;47.712;9.082;2023-01-30T14:02:19;97585.16;;;1.91;71.32
6668;BME280;3370;47.712;9.082;2023-01-30T14:04:54;97580.97;;;1.80;72.55
6668;BME280;3370;47.712;9.082;2023-01-30T14:07:37;97590.22;;;1.90;72.39
6668;BME280;3370;47.712;9.082;2023-01-30T14:12:47;97564.03;;;1.80;72.49
6668;BME280;3370;47.712;9.082;2023-01-30T14:20:31;97589.38;;;1.94;74.55
6668;BME280;3370;47.712;9.082;2023-01-30T14:23:01;97576.69;;;1.89;73.21
6668;BME280;3370;47.712;9.082;2023-01-30T14:30:44;97583.47;;;1.90;72.92
6668;BME280;3370;47.712;9.082;2023-01-30T14:38:33;97618.13;;;1.98;73.29
6668;BME280;3370;47.712;9.082;2023-01-30T14:51:44;97609.66;;;1.97;73.09
6668;BME280;3370;47.712;9.082;2023-01-30T14:56:50;97618.97;;;1.97;73.79
6668;BME280;3370;47.712;9.082;2023-01-30T15:05:19;97644.34;;;2.01;74.37
6668;BME280;3370;47.712;9.082;2023-01-30T15:08:17;97639.25;;;2.00;74.36
6668;BME280;3370;47.712;9.082;2023-01-30T15:13:38;97646.00;;;2.04;74.76
6668;BME280;3370;47.712;9.082;2023-01-30T15:16:36;97663.75;;;2.02;74.90
6668;BME280;3370;47.712;9.082;2023-01-30T15:25:32;97673.03;;;2.05;75.13
6668;BME280;3370;47.712;9.082;2023-01-30T15:31:07;97674.78;;;2.01;77.06
6668;BME280;3370;47.712;9.082;2023-01-30T15:33:48;97672.22;;;2.01;77.06
6668;BME280;3370;47.712;9.082;2023-01-30T15:36:29;97679.84;;;2.00;77.21
6668;BME280;3370;47.712;9.082;2023-01-30T15:41:46;97694.22;;;1.96;79.52
6668;BME280;3370;47.712;9.082;2023-01-30T15:44:43;97706.88;;;1.91;79.49
6668;BME280;3370;47.712;9.082;2023-01-30T15:47:42;97707.72;;;1.95;78.42
6668;BME280;3370;47.712;9.082;2023-01-30T15:50:12;97713.63;;;1.96;78.75
6668;BME280;3370;47.712;9.082;2023-01-30T15:52:46;97719.56;;;1.90;79.38
6668;BME280;3370;47.712;9.082;2023-01-30T15:55:31;97724.63;;;1.90;78.80
6668;BME280;3370;47.712;9.082;2023-01-30T15:58:10;97729.72;;;1.91;78.41
6668;BME280;3370;47.712;9.082;2023-01-30T16:00:46;97726.31;;;1.86;79.45
6668;BME280;3370;47.712;9.082;2023-01-30T16:03:21;97731.38;;;1.76;80.53
6668;BME280;3370;47.712;9.082;2023-01-30T16:05:53;97729.72;;;1.81;81.02
6668;BME280;3370;47.712;9.082;2023-01-30T16:08:34;97737.31;;;1.81;82.31
6668;BME280;3370;47.712;9.082;2023-01-30T16:11:01;97753.38;;;1.83;82.58
6668;BME280;3370;47.712;9.082;2023-01-30T16:13:28;97758.44;;;1.83;82.42
6668;BME280;3370;47.712;9.082;2023-01-30T16:16:07;97756.75;;;1.71;83.04
6668;BME280;3370;47.712;9.082;2023-01-30T16:18:56;97760.94;;;1.61;84.67
6668;BME280;3370;47.712;9.082;2023-01-30T16:21:36;97760.94;;;1.53;85.94